sensor_id;sensor_type;location;lat;lon;timestamp;P1;durP1;ratioP1;P2;durP2;ratioP2
6825;SDS011;3451;52.476;13.316;2022-09-27T00:00:03;3.63;;;1.93;;
6825;SDS011;3451;52.476;13.316;2022-09-27T00:02:30;3.57;;;1.97;;
6825;SDS011;3451;52.476;13.316;2022-09-27T00:04:57;5.63;;;2.00;;
6825;SDS011;3451;52.476;13.316;2022-09-27T00:07:23;4.33;;;1.97;;
6825;SDS011;3451;52.476;13.316;2022-09-27T00:09:50;2.63;;;2.00;;
6825;SDS011;3451;52.476;13.316;2022-09-27T00:12:16;3.47;;;1.97;;
6825;SDS011;3451;52.476;13.316;2022-09-27T00:14:42;4.83;;;1.90;;
6825;SDS011;3451;52.476;13.316;2022-09-27T00:17:08;4.47;;;1.90;;
6825;SDS011;3451;52.476;13.316;2022-09-27T00:19:35;5.53;;;1.80;;
6825;SDS011;3451;52.476;13.316;2022-09-27T00:22:01;2.23;;;1.87;;
6825;SDS011;3451;52.476;13.316;2022-09-27T00:24:28;3.40;;;1.60;;
6825;SDS011;3451;52.476;13.316;2022-09-27T00:26:54;2.87;;;2.13;;
6825;SDS011;3451;52.476;13.316;2022-09-27T00:29:21;4.50;;;2.20;;
6825;SDS011;3451;52.476;13.316;2022-09-27T00:31:47;2.80;;;1.80;;
6825;SDS011;3451;52.476;13.316;2022-09-27T00:34:18;2.23;;;1.50;;
6825;SDS011;3451;52.476;13.316;2022-09-27T00:36:45;2.73;;;1.73;;
6825;SDS011;3451;52.476;13.316;2022-09-27T00:39:12;2.67;;;1.47;;
6825;SDS011;3451;52.476;13.316;2022-09-27T00:41:38;2.53;;;1.70;;
6825;SDS011;3451;52.476;13.316;2022-09-27T00:44:46;2.00;;;1.70;;
6825;SDS011;3451;52.476;13.316;2022-09-27T00:47:13;2.70;;;1.97;;
6825;SDS011;3451;52.476;13.316;2022-09-27T00:49:43;3.83;;;1.80;;
6825;SDS011;3451;52.476;13.316;2022-09-27T00:52:12;2.13;;;1.70;;
6825;SDS011;3451;52.476;13.316;2022-09-27T00:54:41;3.00;;;1.47;;
6825;SDS011;3451;52.476;13.316;2022-09-27T00:57:09;2.67;;;1.40;;
6825;SDS011;3451;52.476;13.316;2022-09-27T00:59:39;2.00;;;1.57;;
6825;SDS011;3451;52.476;13.316;2022-09-27T01:02:06;2.60;;;1.40;;
6825;SDS011;3451;52.476;13.316;2022-09-27T01:04:33;2.30;;;1.70;;
6825;SDS011;3451;52.476;13.316;2022-09-27T01:07:00;2.00;;;1.60;;
6825;SDS011;3451;52.476;13.316;2022-09-27T01:09:26;2.60;;;1.87;;
6825;SDS011;3451;52.476;13.316;2022-09-27T01:11:56;3.27;;;1.50;;
6825;SDS011;3451;52.476;13.316;2022-09-27T01:22:05;2.57;;;1.70;;
6825;SDS011;3451;52.476;13.316;2022-09-27T01:24:38;3.37;;;1.50;;
6825;SDS011;3451;52.476;13.316;2022-09-27T01:29:55;1.80;;;1.33;;
6825;SDS011;3451;52.476;13.316;2022-09-27T01:32:35;4.17;;;1.80;;
6825;SDS011;3451;52.476;13.316;2022-09-27T01:35:06;3.40;;;1.73;;
6825;SDS011;3451;52.476;13.316;2022-09-27T01:37:37;3.27;;;1.97;;
6825;SDS011;3451;52.476;13.316;2022-09-27T01:40:16;3.37;;;1.40;;
6825;SDS011;3451;52.476;13.316;2022-09-27T01:42:53;4.47;;;2.37;;
6825;SDS011;3451;52.476;13.316;2022-09-27T01:45:27;2.70;;;1.90;;
6825;SDS011;3451;52.476;13.316;2022-09-27T01:48:00;2.00;;;1.50;;
6825;SDS011;3451;52.476;13.316;2022-09-27T01:50:28;2.27;;;1.60;;
6825;SDS011;3451;52.476;13.316;2022-09-27T01:53:02;3.10;;;1.43;;
6825;SDS011;3451;52.476;13.316;2022-09-27T01:55:31;2.83;;;1.57;;
6825;SDS011;3451;52.476;13.316;2022-09-27T01:58:13;3.97;;;1.60;;
6825;SDS011;3451;52.476;13.316;2022-09-27T02:00:41;1.73;;;1.40;;
6825;SDS011;3451;52.476;13.316;2022-09-27T02:03:13;2.10;;;1.47;;
6825;SDS011;3451;52.476;13.316;2022-09-27T02:08:24;1.87;;;1.30;;
6825;SDS011;3451;52.476;13.316;2022-09-27T02:10:51;3.30;;;1.67;;
6825;SDS011;3451;52.476;13.316;2022-09-27T02:13:20;3.10;;;1.40;;
6825;SDS011;3451;52.476;13.316;2022-09-27T02:18:18;1.93;;;1.60;;
6825;SDS011;3451;52.476;13.316;2022-09-27T02:20:56;2.83;;;1.50;;
6825;SDS011;3451;52.476;13.316;2022-09-27T02:23:34;2.77;;;1.60;;
6825;SDS011;3451;52.476;13.316;2022-09-27T02:26:03;1.83;;;1.40;;
6825;SDS011;3451;52.476;13.316;2022-09-27T02:28:32;2.20;;;1.70;;
6825;SDS011;3451;52.476;13.316;2022-09-27T02:31:00;4.60;;;1.43;;
6825;SDS011;3451;52.476;13.316;2022-09-27T02:33:28;3.20;;;1.37;;
6825;SDS011;3451;52.476;13.316;2022-09-27T02:35:55;1.30;;;1.13;;
6825;SDS011;3451;52.476;13.316;2022-09-27T02:38:22;2.60;;;1.50;;
6825;SDS011;3451;52.476;13.316;2022-09-27T02:40:48;2.93;;;1.30;;
6825;SDS011;3451;52.476;13.316;2022-09-27T02:43:15;2.10;;;1.57;;
6825;SDS011;3451;52.476;13.316;2022-09-27T02:45:48;4.33;;;1.70;;
6825;SDS011;3451;52.476;13.316;2022-09-27T02:48:41;2.50;;;1.50;;
6825;SDS011;3451;52.476;13.316;2022-09-27T02:53:33;2.30;;;1.33;;
6825;SDS011;3451;52.476;13.316;2022-09-27T03:03:45;2.27;;;1.50;;
6825;SDS011;3451;52.476;13.316;2022-09-27T03:06:15;4.17;;;1.40;;
6825;SDS011;3451;52.476;13.316;2022-09-27T03:08:42;1.90;;;1.40;;
6825;SDS011;3451;52.476;13.316;2022-09-27T03:11:09;2.43;;;1.50;;
6825;SDS011;3451;52.476;13.316;2022-09-27T03:13:35;3.47;;;1.50;;
6825;SDS011;3451;52.476;13.316;2022-09-27T03:16:23;4.40;;;1.50;;
6825;SDS011;3451;52.476;13.316;2022-09-27T03:18:50;2.80;;;1.30;;
6825;SDS011;3451;52.476;13.316;2022-09-27T03:21:16;2.97;;;1.80;;
6825;SDS011;3451;52.476;13.316;2022-09-27T03:23:42;3.40;;;1.67;;
6825;SDS011;3451;52.476;13.316;2022-09-27T03:26:09;3.17;;;1.50;;
6825;SDS011;3451;52.476;13.316;2022-09-27T03:28:38;3.67;;;1.80;;
6825;SDS011;3451;52.476;13.316;2022-09-27T03:31:04;3.20;;;1.83;;
6825;SDS011;3451;52.476;13.316;2022-09-27T03:33:31;2.27;;;1.60;;
6825;SDS011;3451;52.476;13.316;2022-09-27T03:35:58;4.17;;;1.70;;
6825;SDS011;3451;52.476;13.316;2022-09-27T03:38:25;3.87;;;1.80;;
6825;SDS011;3451;52.476;13.316;2022-09-27T03:40:51;3.50;;;1.67;;
6825;SDS011;3451;52.476;13.316;2022-09-27T03:43:18;2.00;;;1.80;;
6825;SDS011;3451;52.476;13.316;2022-09-27T03:45:45;4.57;;;1.80;;
6825;SDS011;3451;52.476;13.316;2022-09-27T03:48:12;3.60;;;1.70;;
6825;SDS011;3451;52.476;13.316;2022-09-27T03:50:39;3.07;;;1.77;;
6825;SDS011;3451;52.476;13.316;2022-09-27T03:53:05;3.40;;;1.60;;
6825;SDS011;3451;52.476;13.316;2022-09-27T03:55:31;3.47;;;1.90;;
6825;SDS011;3451;52.476;13.316;2022-09-27T03:57:58;2.23;;;1.70;;
6825;SDS011;3451;52.476;13.316;2022-09-27T04:00:24;5.40;;;1.90;;
6825;SDS011;3451;52.476;13.316;2022-09-27T04:02:51;2.80;;;1.90;;
6825;SDS011;3451;52.476;13.316;2022-09-27T04:05:17;2.07;;;1.67;;
6825;SDS011;3451;52.476;13.316;2022-09-27T04:07:47;2.77;;;1.60;;
6825;SDS011;3451;52.476;13.316;2022-09-27T04:10:14;3.67;;;1.77;;
6825;SDS011;3451;52.476;13.316;2022-09-27T04:12:41;3.93;;;2.17;;
6825;SDS011;3451;52.476;13.316;2022-09-27T04:15:07;2.20;;;1.80;;
6825;SDS011;3451;52.476;13.316;2022-09-27T04:17:34;3.30;;;2.00;;
6825;SDS011;3451;52.476;13.316;2022-09-27T04:20:00;3.37;;;1.90;;
6825;SDS011;3451;52.476;13.316;2022-09-27T04:22:28;2.77;;;1.80;;
6825;SDS011;3451;52.476;13.316;2022-09-27T04:24:54;2.63;;;1.73;;
6825;SDS011;3451;52.476;13.316;2022-09-27T04:27:21;3.27;;;2.37;;
6825;SDS011;3451;52.476;13.316;2022-09-27T04:29:47;2.43;;;1.87;;
6825;SDS011;3451;52.476;13.316;2022-09-27T04:32:14;3.10;;;2.30;;
6825;SDS011;3451;52.476;13.316;2022-09-27T04:34:40;2.73;;;1.60;;
6825;SDS011;3451;52.476;13.316;2022-09-27T04:37:25;2.27;;;1.90;;
6825;SDS011;3451;52.476;13.316;2022-09-27T04:39:52;4.63;;;2.10;;
6825;SDS011;3451;52.476;13.316;2022-09-27T04:42:18;3.20;;;1.97;;
6825;SDS011;3451;52.476;13.316;2022-09-27T04:44:44;3.43;;;1.93;;
6825;SDS011;3451;52.476;13.316;2022-09-27T04:47:10;4.70;;;2.13;;
6825;SDS011;3451;52.476;13.316;2022-09-27T04:49:37;2.53;;;1.90;;
6825;SDS011;3451;52.476;13.316;2022-09-27T04:52:03;1.87;;;1.70;;
6825;SDS011;3451;52.476;13.316;2022-09-27T04:54:31;3.37;;;2.00;;
6825;SDS011;3451;52.476;13.316;2022-09-27T04:56:57;2.83;;;2.00;;
6825;SDS011;3451;52.476;13.316;2022-09-27T04:59:23;2.90;;;2.07;;
6825;SDS011;3451;52.476;13.316;2022-09-27T05:01:50;7.10;;;2.20;;
6825;SDS011;3451;52.476;13.316;2022-09-27T05:04:16;3.27;;;2.30;;
6825;SDS011;3451;52.476;13.316;2022-09-27T05:06:42;3.17;;;2.13;;
6825;SDS011;3451;52.476;13.316;2022-09-27T05:09:08;5.43;;;2.33;;
6825;SDS011;3451;52.476;13.316;2022-09-27T05:11:35;3.83;;;2.20;;
6825;SDS011;3451;52.476;13.316;2022-09-27T05:14:03;3.03;;;1.97;;
6825;SDS011;3451;52.476;13.316;2022-09-27T05:16:29;3.50;;;2.20;;
6825;SDS011;3451;52.476;13.316;2022-09-27T05:18:59;3.17;;;2.37;;
6825;SDS011;3451;52.476;13.316;2022-09-27T05:21:25;5.50;;;2.20;;
6825;SDS011;3451;52.476;13.316;2022-09-27T05:23:51;3.70;;;2.30;;
6825;SDS011;3451;52.476;13.316;2022-09-27T05:26:19;3.50;;;1.97;;
6825;SDS011;3451;52.476;13.316;2022-09-27T05:28:45;2.17;;;1.93;;
6825;SDS011;3451;52.476;13.316;2022-09-27T05:31:12;2.57;;;2.10;;
6825;SDS011;3451;52.476;13.316;2022-09-27T05:33:39;4.33;;;2.13;;
6825;SDS011;3451;52.476;13.316;2022-09-27T05:36:06;3.03;;;2.33;;
6825;SDS011;3451;52.476;13.316;2022-09-27T05:38:33;3.63;;;2.23;;
6825;SDS011;3451;52.476;13.316;2022-09-27T05:41:00;3.97;;;2.30;;
6825;SDS011;3451;52.476;13.316;2022-09-27T05:43:26;4.10;;;2.10;;
6825;SDS011;3451;52.476;13.316;2022-09-27T05:45:53;2.60;;;2.20;;
6825;SDS011;3451;52.476;13.316;2022-09-27T05:48:20;6.40;;;2.47;;
6825;SDS011;3451;52.476;13.316;2022-09-27T05:50:47;4.10;;;2.30;;
6825;SDS011;3451;52.476;13.316;2022-09-27T05:53:13;3.83;;;2.60;;
6825;SDS011;3451;52.476;13.316;2022-09-27T05:55:39;5.50;;;2.37;;
6825;SDS011;3451;52.476;13.316;2022-09-27T05:58:06;2.97;;;2.27;;
6825;SDS011;3451;52.476;13.316;2022-09-27T06:00:33;2.20;;;2.00;;
6825;SDS011;3451;52.476;13.316;2022-09-27T06:03:00;4.73;;;2.60;;
6825;SDS011;3451;52.476;13.316;2022-09-27T06:05:28;4.13;;;2.80;;
6825;SDS011;3451;52.476;13.316;2022-09-27T06:07:59;3.87;;;2.30;;
6825;SDS011;3451;52.476;13.316;2022-09-27T06:10:26;2.37;;;1.90;;
6825;SDS011;3451;52.476;13.316;2022-09-27T06:12:52;2.93;;;2.00;;
6825;SDS011;3451;52.476;13.316;2022-09-27T06:15:18;5.20;;;2.50;;
6825;SDS011;3451;52.476;13.316;2022-09-27T06:17:45;6.47;;;2.03;;
6825;SDS011;3451;52.476;13.316;2022-09-27T06:20:11;4.87;;;2.20;;
6825;SDS011;3451;52.476;13.316;2022-09-27T06:22:38;5.23;;;2.17;;
6825;SDS011;3451;52.476;13.316;2022-09-27T06:25:04;2.20;;;1.87;;
6825;SDS011;3451;52.476;13.316;2022-09-27T06:27:31;2.33;;;2.10;;
6825;SDS011;3451;52.476;13.316;2022-09-27T06:29:57;3.90;;;2.03;;
6825;SDS011;3451;52.476;13.316;2022-09-27T06:32:23;2.50;;;2.00;;
6825;SDS011;3451;52.476;13.316;2022-09-27T06:34:50;2.80;;;2.10;;
6825;SDS011;3451;52.476;13.316;2022-09-27T06:37:16;3.83;;;2.10;;
6825;SDS011;3451;52.476;13.316;2022-09-27T06:39:42;3.60;;;2.27;;
6825;SDS011;3451;52.476;13.316;2022-09-27T06:42:08;4.27;;;2.27;;
6825;SDS011;3451;52.476;13.316;2022-09-27T06:44:36;3.67;;;2.00;;
6825;SDS011;3451;52.476;13.316;2022-09-27T06:47:02;3.00;;;2.10;;
6825;SDS011;3451;52.476;13.316;2022-09-27T06:49:28;4.20;;;2.10;;
6825;SDS011;3451;52.476;13.316;2022-09-27T06:51:55;5.60;;;2.30;;
6825;SDS011;3451;52.476;13.316;2022-09-27T06:54:22;3.93;;;1.90;;
6825;SDS011;3451;52.476;13.316;2022-09-27T06:56:48;2.33;;;1.80;;
6825;SDS011;3451;52.476;13.316;2022-09-27T06:59:14;4.23;;;2.17;;
6825;SDS011;3451;52.476;13.316;2022-09-27T07:02:00;3.20;;;2.07;;
6825;SDS011;3451;52.476;13.316;2022-09-27T07:04:26;3.50;;;2.07;;
6825;SDS011;3451;52.476;13.316;2022-09-27T07:06:53;5.40;;;2.33;;
6825;SDS011;3451;52.476;13.316;2022-09-27T07:09:19;3.07;;;2.00;;
6825;SDS011;3451;52.476;13.316;2022-09-27T07:11:45;3.57;;;2.07;;
6825;SDS011;3451;52.476;13.316;2022-09-27T07:14:12;4.03;;;2.13;;
6825;SDS011;3451;52.476;13.316;2022-09-27T07:16:39;4.13;;;2.50;;
6825;SDS011;3451;52.476;13.316;2022-09-27T07:19:05;3.87;;;2.37;;
6825;SDS011;3451;52.476;13.316;2022-09-27T07:21:32;4.10;;;2.20;;
6825;SDS011;3451;52.476;13.316;2022-09-27T07:23:59;4.23;;;2.30;;
6825;SDS011;3451;52.476;13.316;2022-09-27T07:26:25;4.00;;;2.13;;
6825;SDS011;3451;52.476;13.316;2022-09-27T07:28:51;6.63;;;2.37;;
6825;SDS011;3451;52.476;13.316;2022-09-27T07:31:18;3.53;;;2.43;;
6825;SDS011;3451;52.476;13.316;2022-09-27T07:33:45;3.33;;;2.37;;
6825;SDS011;3451;52.476;13.316;2022-09-27T07:36:11;2.97;;;2.30;;
6825;SDS011;3451;52.476;13.316;2022-09-27T07:38:37;3.73;;;2.10;;
6825;SDS011;3451;52.476;13.316;2022-09-27T07:41:05;3.20;;;2.20;;
6825;SDS011;3451;52.476;13.316;2022-09-27T07:43:31;2.67;;;2.17;;
6825;SDS011;3451;52.476;13.316;2022-09-27T07:45:58;4.97;;;2.57;;
6825;SDS011;3451;52.476;13.316;2022-09-27T07:48:24;3.70;;;2.20;;
6825;SDS011;3451;52.476;13.316;2022-09-27T07:50:51;3.97;;;2.23;;
6825;SDS011;3451;52.476;13.316;2022-09-27T07:53:17;3.20;;;2.37;;
6825;SDS011;3451;52.476;13.316;2022-09-27T07:55:48;5.07;;;2.20;;
6825;SDS011;3451;52.476;13.316;2022-09-27T07:58:14;3.00;;;2.20;;
6825;SDS011;3451;52.476;13.316;2022-09-27T08:00:40;2.67;;;2.30;;
6825;SDS011;3451;52.476;13.316;2022-09-27T08:03:08;3.83;;;2.43;;
6825;SDS011;3451;52.476;13.316;2022-09-27T08:05:35;5.03;;;2.17;;
6825;SDS011;3451;52.476;13.316;2022-09-27T08:08:02;3.13;;;2.13;;
6825;SDS011;3451;52.476;13.316;2022-09-27T08:10:32;2.40;;;2.07;;
6825;SDS011;3451;52.476;13.316;2022-09-27T08:12:59;3.23;;;1.90;;
6825;SDS011;3451;52.476;13.316;2022-09-27T08:15:26;2.40;;;1.80;;
6825;SDS011;3451;52.476;13.316;2022-09-27T08:17:53;2.43;;;1.93;;
6825;SDS011;3451;52.476;13.316;2022-09-27T08:20:20;3.90;;;2.00;;
6825;SDS011;3451;52.476;13.316;2022-09-27T08:22:46;3.00;;;2.07;;
6825;SDS011;3451;52.476;13.316;2022-09-27T08:25:12;8.10;;;1.77;;
6825;SDS011;3451;52.476;13.316;2022-09-27T08:27:40;3.70;;;2.20;;
6825;SDS011;3451;52.476;13.316;2022-09-27T08:30:06;3.13;;;1.90;;
6825;SDS011;3451;52.476;13.316;2022-09-27T08:32:33;4.93;;;2.03;;
6825;SDS011;3451;52.476;13.316;2022-09-27T08:34:59;3.80;;;1.90;;
6825;SDS011;3451;52.476;13.316;2022-09-27T08:37:25;2.40;;;1.80;;
6825;SDS011;3451;52.476;13.316;2022-09-27T08:39:51;3.63;;;1.97;;
6825;SDS011;3451;52.476;13.316;2022-09-27T08:42:22;2.80;;;2.03;;
6825;SDS011;3451;52.476;13.316;2022-09-27T08:45:00;3.30;;;1.63;;
6825;SDS011;3451;52.476;13.316;2022-09-27T08:47:33;2.93;;;1.90;;
6825;SDS011;3451;52.476;13.316;2022-09-27T08:50:03;2.78;;;2.08;;
6825;SDS011;3451;52.476;13.316;2022-09-27T08:52:32;2.70;;;2.13;;
6825;SDS011;3451;52.476;13.316;2022-09-27T08:55:03;3.03;;;1.83;;
6825;SDS011;3451;52.476;13.316;2022-09-27T08:57:31;1.80;;;1.60;;
6825;SDS011;3451;52.476;13.316;2022-09-27T09:00:00;3.40;;;2.17;;
6825;SDS011;3451;52.476;13.316;2022-09-27T09:02:27;2.30;;;2.00;;
6825;SDS011;3451;52.476;13.316;2022-09-27T09:04:55;3.40;;;2.10;;
6825;SDS011;3451;52.476;13.316;2022-09-27T09:12:46;3.60;;;2.10;;
6825;SDS011;3451;52.476;13.316;2022-09-27T09:15:34;3.13;;;2.37;;
6825;SDS011;3451;52.476;13.316;2022-09-27T09:20:53;2.63;;;2.10;;
6825;SDS011;3451;52.476;13.316;2022-09-27T09:25:59;3.10;;;2.07;;
6825;SDS011;3451;52.476;13.316;2022-09-27T09:31:14;3.03;;;2.47;;
6825;SDS011;3451;52.476;13.316;2022-09-27T09:33:51;2.23;;;2.03;;
6825;SDS011;3451;52.476;13.316;2022-09-27T09:36:26;3.53;;;2.10;;
6825;SDS011;3451;52.476;13.316;2022-09-27T09:38:55;3.17;;;2.17;;
6825;SDS011;3451;52.476;13.316;2022-09-27T09:41:25;3.30;;;1.97;;
6825;SDS011;3451;52.476;13.316;2022-09-27T09:43:56;4.80;;;2.30;;
6825;SDS011;3451;52.476;13.316;2022-09-27T09:46:26;3.47;;;2.03;;
6825;SDS011;3451;52.476;13.316;2022-09-27T09:49:00;3.20;;;2.38;;
6825;SDS011;3451;52.476;13.316;2022-09-27T09:51:34;2.70;;;2.10;;
6825;SDS011;3451;52.476;13.316;2022-09-27T09:54:25;3.60;;;2.37;;
6825;SDS011;3451;52.476;13.316;2022-09-27T09:56:58;5.13;;;2.40;;
6825;SDS011;3451;52.476;13.316;2022-09-27T09:59:28;2.47;;;2.00;;
6825;SDS011;3451;52.476;13.316;2022-09-27T10:01:57;5.87;;;2.37;;
6825;SDS011;3451;52.476;13.316;2022-09-27T10:04:25;3.03;;;2.30;;
6825;SDS011;3451;52.476;13.316;2022-09-27T10:06:53;2.43;;;2.23;;
6825;SDS011;3451;52.476;13.316;2022-09-27T10:09:21;3.73;;;2.80;;
6825;SDS011;3451;52.476;13.316;2022-09-27T10:11:49;3.53;;;2.27;;
6825;SDS011;3451;52.476;13.316;2022-09-27T10:14:17;2.73;;;2.40;;
6825;SDS011;3451;52.476;13.316;2022-09-27T10:16:45;4.67;;;2.47;;
6825;SDS011;3451;52.476;13.316;2022-09-27T10:19:16;2.20;;;1.90;;
6825;SDS011;3451;52.476;13.316;2022-09-27T10:21:45;2.13;;;1.97;;
6825;SDS011;3451;52.476;13.316;2022-09-27T10:24:12;2.77;;;2.17;;
6825;SDS011;3451;52.476;13.316;2022-09-27T10:26:44;2.47;;;2.23;;
6825;SDS011;3451;52.476;13.316;2022-09-27T10:31:42;2.17;;;1.97;;
6825;SDS011;3451;52.476;13.316;2022-09-27T10:34:19;2.20;;;2.00;;
6825;SDS011;3451;52.476;13.316;2022-09-27T10:37:00;2.97;;;2.13;;
6825;SDS011;3451;52.476;13.316;2022-09-27T10:39:27;3.27;;;2.20;;
6825;SDS011;3451;52.476;13.316;2022-09-27T10:41:53;4.90;;;2.33;;
6825;SDS011;3451;52.476;13.316;2022-09-27T10:44:23;3.13;;;2.17;;
6825;SDS011;3451;52.476;13.316;2022-09-27T10:46:50;5.20;;;2.33;;
6825;SDS011;3451;52.476;13.316;2022-09-27T10:49:28;3.17;;;2.20;;
6825;SDS011;3451;52.476;13.316;2022-09-27T10:51:56;5.30;;;2.00;;
6825;SDS011;3451;52.476;13.316;2022-09-27T10:56:56;3.10;;;1.90;;
6825;SDS011;3451;52.476;13.316;2022-09-27T10:59:23;4.03;;;2.20;;
6825;SDS011;3451;52.476;13.316;2022-09-27T11:01:50;3.00;;;2.10;;
6825;SDS011;3451;52.476;13.316;2022-09-27T11:04:31;2.40;;;2.10;;
6825;SDS011;3451;52.476;13.316;2022-09-27T11:07:15;5.57;;;2.50;;
6825;SDS011;3451;52.476;13.316;2022-09-27T11:09:43;4.13;;;2.53;;
6825;SDS011;3451;52.476;13.316;2022-09-27T11:12:11;2.47;;;2.00;;
6825;SDS011;3451;52.476;13.316;2022-09-27T11:14:38;2.80;;;2.50;;
6825;SDS011;3451;52.476;13.316;2022-09-27T11:19:47;2.83;;;2.53;;
6825;SDS011;3451;52.476;13.316;2022-09-27T11:22:19;5.43;;;2.40;;
6825;SDS011;3451;52.476;13.316;2022-09-27T11:30:20;2.90;;;2.60;;
6825;SDS011;3451;52.476;13.316;2022-09-27T11:37:57;3.27;;;2.50;;
6825;SDS011;3451;52.476;13.316;2022-09-27T11:43:04;2.67;;;1.20;;
6825;SDS011;3451;52.476;13.316;2022-09-27T11:45:38;1.73;;;0.90;;
6825;SDS011;3451;52.476;13.316;2022-09-27T11:51:22;2.07;;;0.90;;
6825;SDS011;3451;52.476;13.316;2022-09-27T11:59:33;1.47;;;0.80;;
6825;SDS011;3451;52.476;13.316;2022-09-27T12:02:20;3.23;;;0.80;;
6825;SDS011;3451;52.476;13.316;2022-09-27T12:07:40;2.37;;;0.90;;
6825;SDS011;3451;52.476;13.316;2022-09-27T12:10:13;2.43;;;1.00;;
6825;SDS011;3451;52.476;13.316;2022-09-27T12:12:43;2.77;;;1.20;;
6825;SDS011;3451;52.476;13.316;2022-09-27T12:15:15;2.30;;;1.00;;
6825;SDS011;3451;52.476;13.316;2022-09-27T12:17:44;2.80;;;1.20;;
6825;SDS011;3451;52.476;13.316;2022-09-27T12:20:17;3.47;;;1.17;;
6825;SDS011;3451;52.476;13.316;2022-09-27T12:22:53;3.33;;;0.93;;
6825;SDS011;3451;52.476;13.316;2022-09-27T12:25:25;2.57;;;1.00;;
6825;SDS011;3451;52.476;13.316;2022-09-27T12:27:54;4.20;;;1.10;;
6825;SDS011;3451;52.476;13.316;2022-09-27T12:30:21;2.40;;;1.13;;
6825;SDS011;3451;52.476;13.316;2022-09-27T12:32:56;1.83;;;1.23;;
6825;SDS011;3451;52.476;13.316;2022-09-27T12:35:39;3.03;;;1.40;;
6825;SDS011;3451;52.476;13.316;2022-09-27T12:38:34;3.27;;;1.30;;
6825;SDS011;3451;52.476;13.316;2022-09-27T12:41:02;2.37;;;1.30;;
6825;SDS011;3451;52.476;13.316;2022-09-27T12:43:30;2.27;;;1.47;;
6825;SDS011;3451;52.476;13.316;2022-09-27T12:49:01;2.47;;;1.47;;
6825;SDS011;3451;52.476;13.316;2022-09-27T12:51:35;1.87;;;1.20;;
6825;SDS011;3451;52.476;13.316;2022-09-27T12:59:19;1.40;;;1.30;;
6825;SDS011;3451;52.476;13.316;2022-09-27T13:04:40;3.73;;;1.57;;
6825;SDS011;3451;52.476;13.316;2022-09-27T13:10:15;2.53;;;1.43;;
6825;SDS011;3451;52.476;13.316;2022-09-27T13:12:47;2.07;;;1.60;;
6825;SDS011;3451;52.476;13.316;2022-09-27T13:17:51;2.90;;;1.63;;
6825;SDS011;3451;52.476;13.316;2022-09-27T13:31:01;1.73;;;1.43;;
6825;SDS011;3451;52.476;13.316;2022-09-27T13:38:39;2.63;;;1.50;;
6825;SDS011;3451;52.476;13.316;2022-09-27T13:41:17;2.93;;;1.90;;
6825;SDS011;3451;52.476;13.316;2022-09-27T13:43:58;3.93;;;2.50;;
6825;SDS011;3451;52.476;13.316;2022-09-27T13:46:30;2.90;;;1.80;;
6825;SDS011;3451;52.476;13.316;2022-09-27T13:48:58;3.83;;;1.70;;
6825;SDS011;3451;52.476;13.316;2022-09-27T13:53:58;3.13;;;1.57;;
6825;SDS011;3451;52.476;13.316;2022-09-27T13:59:31;5.07;;;1.50;;
6825;SDS011;3451;52.476;13.316;2022-09-27T14:02:44;2.37;;;1.23;;
6825;SDS011;3451;52.476;13.316;2022-09-27T14:04:49;1.83;;;1.30;;
6825;SDS011;3451;52.476;13.316;2022-09-27T14:07:23;2.00;;;1.50;;
6825;SDS011;3451;52.476;13.316;2022-09-27T14:09:52;1.70;;;1.47;;
6825;SDS011;3451;52.476;13.316;2022-09-27T14:12:30;1.97;;;1.50;;
6825;SDS011;3451;52.476;13.316;2022-09-27T14:14:57;2.73;;;1.50;;
6825;SDS011;3451;52.476;13.316;2022-09-27T14:17:24;2.60;;;1.30;;
6825;SDS011;3451;52.476;13.316;2022-09-27T14:19:51;3.23;;;1.57;;
6825;SDS011;3451;52.476;13.316;2022-09-27T14:22:20;1.70;;;1.30;;
6825;SDS011;3451;52.476;13.316;2022-09-27T14:24:47;1.70;;;1.27;;
6825;SDS011;3451;52.476;13.316;2022-09-27T14:27:20;3.10;;;1.20;;
6825;SDS011;3451;52.476;13.316;2022-09-27T14:29:50;1.10;;;1.00;;
6825;SDS011;3451;52.476;13.316;2022-09-27T14:32:22;2.33;;;1.00;;
6825;SDS011;3451;52.476;13.316;2022-09-27T14:35:02;1.70;;;1.30;;
6825;SDS011;3451;52.476;13.316;2022-09-27T14:37:29;1.70;;;1.10;;
6825;SDS011;3451;52.476;13.316;2022-09-27T14:42:23;1.70;;;1.27;;
6825;SDS011;3451;52.476;13.316;2022-09-27T14:44:50;1.83;;;1.47;;
6825;SDS011;3451;52.476;13.316;2022-09-27T14:47:23;2.87;;;1.47;;
6825;SDS011;3451;52.476;13.316;2022-09-27T14:52:24;4.40;;;2.20;;
6825;SDS011;3451;52.476;13.316;2022-09-27T14:55:07;2.57;;;1.63;;
6825;SDS011;3451;52.476;13.316;2022-09-27T14:57:36;1.80;;;1.53;;
6825;SDS011;3451;52.476;13.316;2022-09-27T15:00:14;2.70;;;1.73;;
6825;SDS011;3451;52.476;13.316;2022-09-27T15:02:41;2.27;;;1.67;;
6825;SDS011;3451;52.476;13.316;2022-09-27T15:05:15;2.63;;;1.73;;
6825;SDS011;3451;52.476;13.316;2022-09-27T15:07:43;2.33;;;1.80;;
6825;SDS011;3451;52.476;13.316;2022-09-27T15:10:17;2.43;;;1.70;;
6825;SDS011;3451;52.476;13.316;2022-09-27T15:12:44;4.67;;;1.93;;
6825;SDS011;3451;52.476;13.316;2022-09-27T15:15:15;3.97;;;1.93;;
6825;SDS011;3451;52.476;13.316;2022-09-27T15:17:45;4.40;;;2.10;;
6825;SDS011;3451;52.476;13.316;2022-09-27T15:20:18;2.70;;;2.03;;
6825;SDS011;3451;52.476;13.316;2022-09-27T15:22:45;2.50;;;2.20;;
6825;SDS011;3451;52.476;13.316;2022-09-27T15:25:17;4.93;;;2.20;;
6825;SDS011;3451;52.476;13.316;2022-09-27T15:27:45;4.57;;;2.47;;
6825;SDS011;3451;52.476;13.316;2022-09-27T15:30:15;2.33;;;1.83;;
6825;SDS011;3451;52.476;13.316;2022-09-27T15:32:46;3.67;;;2.20;;
6825;SDS011;3451;52.476;13.316;2022-09-27T15:35:15;3.00;;;2.33;;
6825;SDS011;3451;52.476;13.316;2022-09-27T15:37:44;4.83;;;2.40;;
6825;SDS011;3451;52.476;13.316;2022-09-27T15:45:30;4.63;;;2.50;;
6825;SDS011;3451;52.476;13.316;2022-09-27T15:48:04;3.47;;;2.60;;
6825;SDS011;3451;52.476;13.316;2022-09-27T15:50:31;3.97;;;2.97;;
6825;SDS011;3451;52.476;13.316;2022-09-27T15:52:57;6.07;;;3.20;;
6825;SDS011;3451;52.476;13.316;2022-09-27T15:55:25;4.40;;;2.60;;
6825;SDS011;3451;52.476;13.316;2022-09-27T15:57:53;5.63;;;2.83;;
6825;SDS011;3451;52.476;13.316;2022-09-27T16:00:20;3.57;;;2.30;;
6825;SDS011;3451;52.476;13.316;2022-09-27T16:02:46;3.07;;;2.10;;
6825;SDS011;3451;52.476;13.316;2022-09-27T16:05:12;2.73;;;1.90;;
6825;SDS011;3451;52.476;13.316;2022-09-27T16:07:39;3.10;;;1.43;;
6825;SDS011;3451;52.476;13.316;2022-09-27T16:10:12;5.23;;;1.70;;
6825;SDS011;3451;52.476;13.316;2022-09-27T16:12:40;1.67;;;1.13;;
6825;SDS011;3451;52.476;13.316;2022-09-27T16:15:06;2.03;;;1.10;;
6825;SDS011;3451;52.476;13.316;2022-09-27T16:17:33;2.87;;;1.40;;
6825;SDS011;3451;52.476;13.316;2022-09-27T16:20:05;1.50;;;1.27;;
6825;SDS011;3451;52.476;13.316;2022-09-27T16:22:32;1.80;;;1.20;;
6825;SDS011;3451;52.476;13.316;2022-09-27T16:24:58;2.00;;;1.40;;
6825;SDS011;3451;52.476;13.316;2022-09-27T16:27:24;2.60;;;1.50;;
6825;SDS011;3451;52.476;13.316;2022-09-27T16:29:52;1.60;;;1.37;;
6825;SDS011;3451;52.476;13.316;2022-09-27T16:32:19;2.17;;;1.60;;
6825;SDS011;3451;52.476;13.316;2022-09-27T16:34:46;2.00;;;1.27;;
6825;SDS011;3451;52.476;13.316;2022-09-27T16:37:12;1.70;;;1.43;;
6825;SDS011;3451;52.476;13.316;2022-09-27T16:39:39;3.27;;;1.60;;
6825;SDS011;3451;52.476;13.316;2022-09-27T16:42:05;2.97;;;1.80;;
6825;SDS011;3451;52.476;13.316;2022-09-27T16:44:32;2.90;;;1.70;;
6825;SDS011;3451;52.476;13.316;2022-09-27T16:47:02;2.33;;;1.70;;
6825;SDS011;3451;52.476;13.316;2022-09-27T16:49:29;4.23;;;1.97;;
6825;SDS011;3451;52.476;13.316;2022-09-27T16:52:14;3.00;;;1.83;;
6825;SDS011;3451;52.476;13.316;2022-09-27T16:54:41;2.67;;;2.00;;
6825;SDS011;3451;52.476;13.316;2022-09-27T16:57:07;2.27;;;1.63;;
6825;SDS011;3451;52.476;13.316;2022-09-27T16:59:33;3.37;;;1.80;;
6825;SDS011;3451;52.476;13.316;2022-09-27T17:02:00;5.03;;;1.73;;
6825;SDS011;3451;52.476;13.316;2022-09-27T17:04:26;2.30;;;2.03;;
6825;SDS011;3451;52.476;13.316;2022-09-27T17:06:53;2.00;;;1.60;;
6825;SDS011;3451;52.476;13.316;2022-09-27T17:09:19;2.43;;;1.90;;
6825;SDS011;3451;52.476;13.316;2022-09-27T17:11:46;2.20;;;1.83;;